TimeMST,TemperatureF,Dew PointF,Humidity,Sea Level PressureIn,VisibilityMPH,Wind Direction,Wind SpeedMPH,Gust SpeedMPH,PrecipitationIn,Events,Conditions,WindDirDegrees,DateUTC
12:53 AM,39.9,18.0,41,29.71,10.0,West,18.4,24.2,N/A,,Scattered Clouds,260,2013-01-08 07:53:00
1:53 AM,39.0,18.0,43,29.73,10.0,West,12.7,25.3,N/A,,Partly Cloudy,260,2013-01-08 08:53:00
2:53 AM,37.0,18.0,46,29.75,10.0,West,17.3,23.0,N/A,,Clear,270,2013-01-08 09:53:00
3:53 AM,37.0,19.0,48,29.75,10.0,West,15.0,24.2,N/A,,Clear,260,2013-01-08 10:53:00
4:53 AM,37.0,19.9,50,29.81,10.0,West,10.4,18.4,N/A,,Clear,260,2013-01-08 11:53:00
5:53 AM,36.0,19.9,52,29.82,10.0,WNW,11.5,-,N/A,,Clear,290,2013-01-08 12:53:00
7:53 AM,37.0,21.0,52,29.87,10.0,West,16.1,24.2,N/A,,Clear,280,2013-01-08 14:53:00
8:53 AM,39.9,21.9,49,29.91,10.0,West,19.6,31.1,N/A,,Clear,280,2013-01-08 15:53:00
9:53 AM,44.1,21.9,42,29.91,10.0,West,20.7,34.5,N/A,,Clear,280,2013-01-08 16:53:00
10:53 AM,46.0,21.9,39,29.93,10.0,West,26.5,36.8,N/A,,Clear,280,2013-01-08 17:53:00
11:53 AM,46.9,21.0,36,29.89,10.0,West,23.0,35.7,N/A,,Clear,270,2013-01-08 18:53:00
12:53 PM,48.0,21.0,34,29.88,10.0,West,23.0,35.7,N/A,,Clear,280,2013-01-08 19:53:00
1:53 PM,48.9,21.0,33,29.91,10.0,West,23.0,35.7,N/A,,Clear,260,2013-01-08 20:53:00
2:53 PM,46.9,21.9,37,29.95,10.0,West,27.6,39.1,N/A,,Clear,270,2013-01-08 21:53:00
3:53 PM,46.0,21.9,39,29.99,10.0,West,23.0,29.9,N/A,,Clear,260,2013-01-08 22:53:00
5:53 PM,39.0,21.0,49,30.08,10.0,West,10.4,-,N/A,,Clear,280,2013-01-09 00:53:00
6:53 PM,39.0,21.9,50,30.11,10.0,West,12.7,-,N/A,,Clear,280,2013-01-09 01:53:00
7:53 PM,39.0,21.9,50,30.13,10.0,West,11.5,21.9,N/A,,Clear,270,2013-01-09 02:53:00
9:53 PM,37.9,21.9,53,30.16,10.0,West,13.8,26.5,N/A,,Clear,270,2013-01-09 04:53:00
10:53 PM,35.1,21.9,59,30.19,10.0,WSW,11.5,-,N/A,,Clear,250,2013-01-09 05:53:00
11:53 PM,37.0,23.0,57,30.19,10.0,West,13.8,-,N/A,,Clear,260,2013-01-09 06:53:00